VOE2234 LFRS-LIRP
Flight info
| Callsign | VOE2234 |
|---|---|
| Flight time | 1h 54m |
| Altitude | 25000 |
| Route | LUGEN4N LUGEN UM184 TUPAR/N0393F290 DCT DIDRU DCT BEBIX/N0385F280 DCT VALKU/N0442F370 DCT LERGA DCT TOZOT DCT OTROT DCT RETNO DCT KOLON DCT RAPUR G374 BTA/N0431F380 L146 MOULE/N0334F190 L146 ELB ELB1D |
| Aircraft | A20N/M-SDE2E3FGHIRWXY/LB1 |
Departure
| Time | 2026-05-05 07:10 |
|---|---|
| Airport | Nantes Atlantique Airport (LFRS) |
Arrival
| Time | 2026-05-05 09:04 |
|---|---|
| Airport | Pisa International Airport (LIRP) |
| Time | Latitude | Longitude | Altitude | Speed | Heading |
|---|---|---|---|---|---|
| 2026-05-05 06:47 | 47.15771 | -1.60348 | 93 ft | 0 kts | 128° |
| 2026-05-05 06:58 | 47.15774 | -1.60354 | 96 ft | 1 kts | 128° |
| 2026-05-05 06:59 | 47.15779 | -1.60363 | 94 ft | 1 kts | 128° |
| 2026-05-05 06:59 | 47.15784 | -1.60372 | 93 ft | 1 kts | 128° |
| 2026-05-05 06:59 | 47.15792 | -1.60387 | 91 ft | 2 kts | 128° |
| 2026-05-05 06:59 | 47.15797 | -1.60398 | 90 ft | 2 kts | 132° |
| 2026-05-05 07:00 | 47.15809 | -1.60412 | 91 ft | 2 kts | 156° |
| 2026-05-05 07:00 | 47.15823 | -1.60419 | 90 ft | 2 kts | 180° |
| 2026-05-05 07:00 | 47.15837 | -1.60415 | 90 ft | 2 kts | 207° |
| 2026-05-05 07:00 | 47.15841 | -1.60411 | 90 ft | 0 kts | 206° |
| 2026-05-05 07:02 | 47.15835 | -1.60415 | 90 ft | 4 kts | 204° |
| 2026-05-05 07:03 | 47.15784 | -1.60450 | 93 ft | 11 kts | 207° |
| 2026-05-05 07:03 | 47.15703 | -1.60511 | 91 ft | 15 kts | 208° |
| 2026-05-05 07:03 | 47.15610 | -1.60583 | 94 ft | 15 kts | 208° |
| 2026-05-05 07:03 | 47.15511 | -1.60659 | 96 ft | 17 kts | 207° |
| 2026-05-05 07:04 | 47.15399 | -1.60745 | 94 ft | 19 kts | 207° |
| 2026-05-05 07:04 | 47.15277 | -1.60837 | 93 ft | 21 kts | 207° |
| 2026-05-05 07:04 | 47.15138 | -1.60942 | 93 ft | 23 kts | 206° |
| 2026-05-05 07:04 | 47.14985 | -1.61059 | 90 ft | 26 kts | 208° |
| 2026-05-05 07:05 | 47.14827 | -1.61180 | 91 ft | 27 kts | 208° |
| 2026-05-05 07:05 | 47.14662 | -1.61305 | 93 ft | 27 kts | 207° |
| 2026-05-05 07:05 | 47.14486 | -1.61439 | 89 ft | 29 kts | 207° |
| 2026-05-05 07:05 | 47.14306 | -1.61577 | 83 ft | 16 kts | 207° |
| 2026-05-05 07:06 | 47.14244 | -1.61624 | 85 ft | 11 kts | 207° |
| 2026-05-05 07:06 | 47.14182 | -1.61674 | 82 ft | 5 kts | 218° |
| 2026-05-05 07:06 | 47.14182 | -1.61675 | 82 ft | 0 kts | 219° |
| 2026-05-05 07:07 | 47.14181 | -1.61676 | 82 ft | 1 kts | 220° |
| 2026-05-05 07:07 | 47.14166 | -1.61713 | 81 ft | 7 kts | 248° |
| 2026-05-05 07:07 | 47.14145 | -1.61799 | 83 ft | 10 kts | 250° |
| 2026-05-05 07:07 | 47.14152 | -1.61899 | 84 ft | 11 kts | 297° |
| 2026-05-05 07:08 | 47.14182 | -1.61935 | 84 ft | 5 kts | 1° |
| 2026-05-05 07:08 | 47.14202 | -1.61922 | 80 ft | 1 kts | 30° |
| 2026-05-05 07:09 | 47.14244 | -1.61888 | 81 ft | 33 kts | 27° |
| 2026-05-05 07:09 | 47.14658 | -1.61575 | 92 ft | 99 kts | 27° |
| 2026-05-05 07:09 | 47.15427 | -1.60993 | 98 ft | 150 kts | 25° |
| 2026-05-05 07:09 | 47.16370 | -1.60307 | 634 ft | 150 kts | 24° |
| 2026-05-05 07:10 | 47.17328 | -1.59591 | 1147 ft | 161 kts | 24° |
| 2026-05-05 07:10 | 47.18372 | -1.58735 | 1557 ft | 179 kts | 37° |
| 2026-05-05 07:10 | 47.18994 | -1.57209 | 2349 ft | 178 kts | 78° |
| 2026-05-05 07:10 | 47.18777 | -1.55495 | 3115 ft | 175 kts | 120° |
| 2026-05-05 07:11 | 47.17924 | -1.54378 | 3547 ft | 188 kts | 158° |
| 2026-05-05 07:11 | 47.16736 | -1.54054 | 3911 ft | 203 kts | 182° |
| 2026-05-05 07:11 | 47.15320 | -1.54207 | 4329 ft | 221 kts | 186° |
| 2026-05-05 07:11 | 47.13724 | -1.54099 | 4696 ft | 247 kts | 171° |
| 2026-05-05 07:12 | 47.12003 | -1.53352 | 5171 ft | 269 kts | 159° |
| 2026-05-05 07:12 | 47.10272 | -1.52119 | 5827 ft | 281 kts | 152° |
| 2026-05-05 07:12 | 47.08580 | -1.50663 | 6769 ft | 283 kts | 149° |
| 2026-05-05 07:12 | 47.06912 | -1.49091 | 7631 ft | 287 kts | 143° |
| 2026-05-05 07:13 | 47.05400 | -1.47160 | 8534 ft | 290 kts | 137° |
| 2026-05-05 07:13 | 47.03899 | -1.45145 | 9417 ft | 294 kts | 138° |
| 2026-05-05 07:13 | 47.02374 | -1.43128 | 10222 ft | 299 kts | 139° |
| 2026-05-05 07:13 | 47.00794 | -1.41057 | 10562 ft | 321 kts | 139° |
| 2026-05-05 07:14 | 46.99091 | -1.38834 | 10844 ft | 342 kts | 139° |
| 2026-05-05 07:14 | 46.97298 | -1.36499 | 11505 ft | 348 kts | 139° |
| 2026-05-05 07:14 | 46.95483 | -1.34135 | 12371 ft | 349 kts | 139° |
| 2026-05-05 07:14 | 46.93671 | -1.31776 | 13254 ft | 350 kts | 139° |
| 2026-05-05 07:15 | 46.91848 | -1.29407 | 14032 ft | 352 kts | 139° |
| 2026-05-05 07:15 | 46.90011 | -1.27023 | 14785 ft | 353 kts | 139° |
| 2026-05-05 07:15 | 46.88170 | -1.24637 | 15530 ft | 355 kts | 139° |
| 2026-05-05 07:15 | 46.86322 | -1.22244 | 16273 ft | 356 kts | 139° |
| 2026-05-05 07:16 | 46.84454 | -1.19827 | 16950 ft | 360 kts | 138° |
| 2026-05-05 07:16 | 46.82575 | -1.17395 | 17618 ft | 363 kts | 138° |
| 2026-05-05 07:16 | 46.80705 | -1.14971 | 18265 ft | 366 kts | 138° |
| 2026-05-05 07:16 | 46.78794 | -1.12493 | 18862 ft | 368 kts | 138° |
| 2026-05-05 07:17 | 46.76877 | -1.10008 | 19457 ft | 370 kts | 138° |
| 2026-05-05 07:17 | 46.74947 | -1.07510 | 20078 ft | 372 kts | 138° |
| 2026-05-05 07:17 | 46.73007 | -1.05002 | 20696 ft | 373 kts | 138° |
| 2026-05-05 07:17 | 46.71055 | -1.02482 | 21273 ft | 376 kts | 138° |
| 2026-05-05 07:18 | 46.69091 | -0.99948 | 21870 ft | 378 kts | 138° |
| 2026-05-05 07:18 | 46.67795 | -0.98279 | 22254 ft | 379 kts | 138° |
| 2026-05-05 07:18 | 46.65140 | -0.94860 | 23030 ft | 382 kts | 138° |
| 2026-05-05 07:18 | 46.63170 | -0.92327 | 23576 ft | 384 kts | 138° |
| 2026-05-05 07:19 | 46.61165 | -0.89750 | 24067 ft | 385 kts | 138° |
| 2026-05-05 07:19 | 46.59153 | -0.87169 | 24549 ft | 387 kts | 138° |
| 2026-05-05 07:19 | 46.57136 | -0.84580 | 24680 ft | 388 kts | 138° |
| 2026-05-05 07:19 | 46.55112 | -0.81970 | 24778 ft | 388 kts | 138° |
| 2026-05-05 07:20 | 46.53099 | -0.79372 | 24875 ft | 388 kts | 138° |
| 2026-05-05 07:20 | 46.51080 | -0.76769 | 24908 ft | 388 kts | 138° |
| 2026-05-05 07:20 | 46.49745 | -0.75051 | 24910 ft | 388 kts | 138° |
| 2026-05-05 07:20 | 46.47065 | -0.71605 | 24908 ft | 388 kts | 138° |
| 2026-05-05 07:21 | 46.45063 | -0.68977 | 24908 ft | 388 kts | 135° |
| 2026-05-05 07:21 | 46.43266 | -0.66065 | 24914 ft | 389 kts | 128° |
| 2026-05-05 07:21 | 46.41734 | -0.62820 | 25256 ft | 392 kts | 121° |
| 2026-05-05 07:21 | 46.40458 | -0.59332 | 25790 ft | 391 kts | 118° |
| 2026-05-05 07:22 | 46.39643 | -0.57001 | 26090 ft | 392 kts | 118° |
| 2026-05-05 07:22 | 46.38399 | -0.53471 | 26515 ft | 394 kts | 118° |
| 2026-05-05 07:22 | 46.37144 | -0.49929 | 26943 ft | 396 kts | 118° |
| 2026-05-05 07:22 | 46.35474 | -0.45224 | 27491 ft | 398 kts | 118° |
| 2026-05-05 07:23 | 46.34206 | -0.41656 | 27903 ft | 400 kts | 118° |
| 2026-05-05 07:23 | 46.33345 | -0.39234 | 28153 ft | 401 kts | 118° |
| 2026-05-05 07:23 | 46.31651 | -0.34476 | 28655 ft | 403 kts | 118° |
| 2026-05-05 07:23 | 46.30799 | -0.32087 | 28782 ft | 405 kts | 118° |
| 2026-05-05 07:24 | 46.29507 | -0.28465 | 28884 ft | 405 kts | 118° |
| 2026-05-05 07:24 | 46.26921 | -0.21234 | 28912 ft | 405 kts | 118° |
| 2026-05-05 07:25 | 46.23902 | -0.12815 | 28920 ft | 406 kts | 118° |
| 2026-05-05 07:25 | 46.21712 | -0.06726 | 29373 ft | 409 kts | 118° |
| 2026-05-05 07:25 | 46.20398 | -0.03077 | 29749 ft | 410 kts | 118° |
| 2026-05-05 07:26 | 46.19118 | 0.00546 | 30049 ft | 412 kts | 116° |
| 2026-05-05 07:26 | 46.18045 | 0.04404 | 30263 ft | 417 kts | 110° |
| 2026-05-05 07:26 | 46.17265 | 0.08461 | 30480 ft | 422 kts | 105° |
| 2026-05-05 07:26 | 46.16603 | 0.12594 | 30693 ft | 425 kts | 105° |
| 2026-05-05 07:27 | 46.15925 | 0.16769 | 30920 ft | 428 kts | 105° |
| 2026-05-05 07:27 | 46.15240 | 0.20950 | 31180 ft | 430 kts | 105° |
| 2026-05-05 07:27 | 46.14546 | 0.25155 | 31465 ft | 431 kts | 106° |
| 2026-05-05 07:27 | 46.13849 | 0.29372 | 31738 ft | 433 kts | 106° |
| 2026-05-05 07:28 | 46.13159 | 0.33525 | 32016 ft | 434 kts | 106° |
| 2026-05-05 07:28 | 46.12453 | 0.37772 | 32288 ft | 435 kts | 106° |
| 2026-05-05 07:28 | 46.11506 | 0.43449 | 32659 ft | 436 kts | 106° |
| 2026-05-05 07:28 | 46.11034 | 0.46273 | 32842 ft | 437 kts | 106° |
| 2026-05-05 07:29 | 46.10321 | 0.50527 | 33085 ft | 438 kts | 106° |
| 2026-05-05 07:29 | 46.09602 | 0.54806 | 33342 ft | 439 kts | 107° |
| 2026-05-05 07:29 | 46.08882 | 0.59083 | 33589 ft | 440 kts | 107° |
| 2026-05-05 07:29 | 46.08158 | 0.63371 | 33860 ft | 441 kts | 107° |
| 2026-05-05 07:30 | 46.07441 | 0.67609 | 34080 ft | 442 kts | 107° |
| 2026-05-05 07:30 | 46.05980 | 0.76209 | 34460 ft | 443 kts | 107° |
| 2026-05-05 07:30 | 46.05243 | 0.80529 | 34657 ft | 444 kts | 107° |
| 2026-05-05 07:31 | 46.04505 | 0.84846 | 34830 ft | 445 kts | 107° |
| 2026-05-05 07:31 | 46.03762 | 0.89183 | 35025 ft | 446 kts | 107° |
| 2026-05-05 07:31 | 46.03017 | 0.93518 | 35192 ft | 447 kts | 107° |
| 2026-05-05 07:31 | 46.02269 | 0.97863 | 35373 ft | 448 kts | 107° |
| 2026-05-05 07:32 | 46.01519 | 1.02205 | 35534 ft | 448 kts | 107° |
| 2026-05-05 07:32 | 46.00765 | 1.06564 | 35704 ft | 449 kts | 107° |
| 2026-05-05 07:32 | 46.00017 | 1.10872 | 35858 ft | 450 kts | 107° |
| 2026-05-05 07:32 | 45.99258 | 1.15234 | 36029 ft | 451 kts | 107° |
| 2026-05-05 07:33 | 45.98495 | 1.19612 | 36188 ft | 451 kts | 107° |
| 2026-05-05 07:33 | 45.97730 | 1.23991 | 36346 ft | 452 kts | 107° |
| 2026-05-05 07:33 | 45.96962 | 1.28370 | 36497 ft | 452 kts | 107° |
| 2026-05-05 07:33 | 45.96192 | 1.32755 | 36644 ft | 453 kts | 107° |
| 2026-05-05 07:34 | 45.95547 | 1.37183 | 36787 ft | 456 kts | 102° |
| 2026-05-05 07:34 | 45.95203 | 1.41699 | 36889 ft | 459 kts | 96° |
| 2026-05-05 07:34 | 45.95351 | 1.50937 | 36904 ft | 461 kts | 89° |
| 2026-05-05 07:35 | 45.95726 | 1.60071 | 36903 ft | 461 kts | 90° |
| 2026-05-05 07:35 | 45.96082 | 1.69281 | 36899 ft | 462 kts | 90° |
| 2026-05-05 07:36 | 45.96429 | 1.78491 | 36900 ft | 462 kts | 90° |
| 2026-05-05 07:36 | 45.96766 | 1.87624 | 36897 ft | 462 kts | 90° |
| 2026-05-05 07:37 | 45.97100 | 1.96852 | 36898 ft | 462 kts | 90° |
| 2026-05-05 07:37 | 45.97427 | 2.06079 | 36895 ft | 462 kts | 90° |
| 2026-05-05 07:38 | 45.97746 | 2.15298 | 36894 ft | 462 kts | 90° |
| 2026-05-05 07:38 | 45.98057 | 2.24522 | 36892 ft | 462 kts | 91° |
| 2026-05-05 07:39 | 45.98359 | 2.33680 | 36889 ft | 462 kts | 91° |
| 2026-05-05 07:39 | 45.98656 | 2.42917 | 36895 ft | 463 kts | 91° |
| 2026-05-05 07:40 | 45.98945 | 2.52170 | 36894 ft | 464 kts | 91° |
| 2026-05-05 07:40 | 45.99228 | 2.61408 | 36881 ft | 462 kts | 91° |
| 2026-05-05 07:41 | 45.99469 | 2.70575 | 36874 ft | 460 kts | 95° |
| 2026-05-05 07:41 | 45.98291 | 2.79467 | 36884 ft | 450 kts | 115° |
| 2026-05-05 07:42 | 45.95242 | 2.87175 | 36881 ft | 440 kts | 134° |
| 2026-05-05 07:42 | 45.90861 | 2.93215 | 36882 ft | 436 kts | 142° |
| 2026-05-05 07:43 | 45.86329 | 2.99004 | 36885 ft | 437 kts | 142° |
| 2026-05-05 07:43 | 45.81810 | 3.04762 | 36893 ft | 438 kts | 142° |
| 2026-05-05 07:44 | 45.77262 | 3.10534 | 36882 ft | 436 kts | 142° |
| 2026-05-05 07:44 | 45.72716 | 3.16288 | 36883 ft | 437 kts | 142° |
| 2026-05-05 07:45 | 45.68156 | 3.22045 | 36882 ft | 437 kts | 142° |
| 2026-05-05 07:45 | 45.63619 | 3.27762 | 36885 ft | 437 kts | 142° |
| 2026-05-05 07:46 | 45.59051 | 3.33504 | 36884 ft | 438 kts | 142° |
| 2026-05-05 07:46 | 45.54467 | 3.39253 | 36892 ft | 439 kts | 142° |
| 2026-05-05 07:47 | 45.49875 | 3.45000 | 36893 ft | 440 kts | 142° |
| 2026-05-05 07:47 | 45.45271 | 3.50749 | 36894 ft | 440 kts | 143° |
| 2026-05-05 07:48 | 45.40689 | 3.56457 | 36886 ft | 441 kts | 143° |
| 2026-05-05 07:48 | 45.36095 | 3.62170 | 36895 ft | 438 kts | 143° |
| 2026-05-05 07:49 | 45.31494 | 3.67877 | 36898 ft | 440 kts | 143° |
| 2026-05-05 07:49 | 45.27221 | 3.74134 | 36903 ft | 447 kts | 130° |
| 2026-05-05 07:50 | 45.24314 | 3.81963 | 36905 ft | 459 kts | 113° |
| 2026-05-05 07:50 | 45.23399 | 3.86319 | 36655 ft | 461 kts | 111° |
| 2026-05-05 07:50 | 45.22531 | 3.90675 | 36923 ft | 459 kts | 111° |
| 2026-05-05 07:51 | 45.20759 | 3.99382 | 36898 ft | 459 kts | 111° |
| 2026-05-05 07:51 | 45.18967 | 4.08077 | 36894 ft | 459 kts | 111° |
| 2026-05-05 07:52 | 45.17172 | 4.16752 | 36890 ft | 459 kts | 111° |
| 2026-05-05 07:52 | 45.15381 | 4.25372 | 36885 ft | 459 kts | 111° |
| 2026-05-05 07:53 | 45.13572 | 4.34043 | 36883 ft | 459 kts | 111° |
| 2026-05-05 07:53 | 45.11406 | 4.42479 | 36889 ft | 452 kts | 122° |
| 2026-05-05 07:54 | 45.08101 | 4.49882 | 36875 ft | 441 kts | 134° |
| 2026-05-05 07:54 | 45.04133 | 4.56371 | 36876 ft | 439 kts | 136° |
| 2026-05-05 07:55 | 45.00137 | 4.62889 | 36885 ft | 439 kts | 136° |
| 2026-05-05 07:55 | 44.96135 | 4.69410 | 36896 ft | 439 kts | 136° |
| 2026-05-05 07:56 | 44.92118 | 4.75932 | 36892 ft | 442 kts | 136° |
| 2026-05-05 07:56 | 44.88074 | 4.82475 | 36928 ft | 451 kts | 136° |
| 2026-05-05 07:57 | 44.83957 | 4.89133 | 36906 ft | 450 kts | 136° |
| 2026-05-05 07:57 | 44.79833 | 4.95784 | 36909 ft | 451 kts | 136° |
| 2026-05-05 07:58 | 44.75705 | 5.02425 | 36907 ft | 451 kts | 137° |
| 2026-05-05 07:58 | 44.71584 | 5.09038 | 36910 ft | 452 kts | 137° |
| 2026-05-05 07:59 | 44.67431 | 5.15686 | 36910 ft | 453 kts | 137° |
| 2026-05-05 07:59 | 44.63276 | 5.22323 | 36910 ft | 452 kts | 137° |
| 2026-05-05 08:00 | 44.59115 | 5.28951 | 36909 ft | 453 kts | 137° |
| 2026-05-05 08:00 | 44.54938 | 5.35594 | 36919 ft | 454 kts | 137° |
| 2026-05-05 08:01 | 44.50781 | 5.42185 | 36935 ft | 455 kts | 137° |
| 2026-05-05 08:01 | 44.46579 | 5.48832 | 36941 ft | 456 kts | 137° |
| 2026-05-05 08:02 | 44.42389 | 5.55448 | 36925 ft | 453 kts | 138° |
| 2026-05-05 08:02 | 44.38216 | 5.62102 | 36934 ft | 458 kts | 134° |
| 2026-05-05 08:03 | 44.34541 | 5.69451 | 36930 ft | 462 kts | 130° |
| 2026-05-05 08:03 | 44.30969 | 5.76847 | 36932 ft | 462 kts | 130° |
| 2026-05-05 08:04 | 44.27360 | 5.84273 | 36938 ft | 463 kts | 130° |
| 2026-05-05 08:04 | 44.23742 | 5.91691 | 36936 ft | 462 kts | 130° |
| 2026-05-05 08:05 | 44.20117 | 5.99101 | 36935 ft | 462 kts | 130° |
| 2026-05-05 08:05 | 44.16516 | 6.06444 | 36934 ft | 462 kts | 130° |
| 2026-05-05 08:06 | 44.12885 | 6.13827 | 36931 ft | 462 kts | 130° |
| 2026-05-05 08:06 | 44.09245 | 6.21210 | 36932 ft | 463 kts | 130° |
| 2026-05-05 08:07 | 44.05600 | 6.28586 | 36937 ft | 463 kts | 130° |
| 2026-05-05 08:07 | 44.01968 | 6.35919 | 36940 ft | 464 kts | 131° |
| 2026-05-05 08:08 | 43.98306 | 6.43291 | 36951 ft | 464 kts | 131° |
| 2026-05-05 08:08 | 43.94642 | 6.50650 | 36948 ft | 464 kts | 131° |
| 2026-05-05 08:09 | 43.90964 | 6.58017 | 36944 ft | 464 kts | 131° |
| 2026-05-05 08:09 | 43.87285 | 6.65370 | 36950 ft | 464 kts | 131° |
| 2026-05-05 08:10 | 43.83673 | 6.72568 | 36952 ft | 464 kts | 131° |
| 2026-05-05 08:10 | 43.79983 | 6.79905 | 36960 ft | 465 kts | 131° |
| 2026-05-05 08:11 | 43.76286 | 6.87235 | 36959 ft | 465 kts | 131° |
| 2026-05-05 08:11 | 43.72572 | 6.94585 | 36962 ft | 466 kts | 131° |
| 2026-05-05 08:12 | 43.68993 | 7.02005 | 36969 ft | 468 kts | 129° |
| 2026-05-05 08:12 | 43.65490 | 7.09602 | 36973 ft | 469 kts | 129° |
| 2026-05-05 08:13 | 43.61965 | 7.17160 | 36973 ft | 468 kts | 129° |
| 2026-05-05 08:13 | 43.58420 | 7.24694 | 36966 ft | 468 kts | 129° |
| 2026-05-05 08:14 | 43.54866 | 7.32220 | 36966 ft | 468 kts | 129° |
| 2026-05-05 08:14 | 43.51328 | 7.39695 | 36961 ft | 469 kts | 129° |
| 2026-05-05 08:15 | 43.47760 | 7.47215 | 36957 ft | 469 kts | 129° |
| 2026-05-05 08:15 | 43.44189 | 7.54721 | 36946 ft | 468 kts | 129° |
| 2026-05-05 08:16 | 43.40620 | 7.62203 | 36943 ft | 468 kts | 129° |
| 2026-05-05 08:16 | 43.37068 | 7.69629 | 36938 ft | 468 kts | 129° |
| 2026-05-05 08:17 | 43.33486 | 7.77101 | 36937 ft | 468 kts | 129° |
| 2026-05-05 08:17 | 43.29898 | 7.84564 | 36932 ft | 468 kts | 129° |
| 2026-05-05 08:18 | 43.26304 | 7.92025 | 36933 ft | 469 kts | 129° |
| 2026-05-05 08:18 | 43.22697 | 7.99490 | 36934 ft | 470 kts | 129° |
| 2026-05-05 08:19 | 43.19106 | 8.06906 | 36938 ft | 471 kts | 129° |
| 2026-05-05 08:19 | 43.15477 | 8.14380 | 36943 ft | 472 kts | 129° |
| 2026-05-05 08:20 | 43.11833 | 8.21868 | 36955 ft | 473 kts | 129° |
| 2026-05-05 08:20 | 43.08180 | 8.29355 | 36957 ft | 474 kts | 129° |
| 2026-05-05 08:21 | 43.04538 | 8.36800 | 36959 ft | 475 kts | 129° |
| 2026-05-05 08:21 | 43.00869 | 8.44284 | 36953 ft | 473 kts | 129° |
| 2026-05-05 08:22 | 42.97200 | 8.51748 | 36963 ft | 473 kts | 129° |
| 2026-05-05 08:22 | 42.93522 | 8.59207 | 36956 ft | 474 kts | 129° |
| 2026-05-05 08:23 | 42.89867 | 8.66612 | 36961 ft | 474 kts | 128° |
| 2026-05-05 08:23 | 42.86609 | 8.74488 | 36953 ft | 479 kts | 123° |
| 2026-05-05 08:24 | 42.83457 | 8.82486 | 36961 ft | 479 kts | 123° |
| 2026-05-05 08:24 | 42.80282 | 8.90485 | 36969 ft | 480 kts | 123° |
| 2026-05-05 08:25 | 42.77119 | 8.98412 | 36958 ft | 479 kts | 123° |
| 2026-05-05 08:25 | 42.73932 | 9.06377 | 36601 ft | 481 kts | 123° |
| 2026-05-05 08:26 | 42.72324 | 9.10384 | 35955 ft | 484 kts | 123° |
| 2026-05-05 08:26 | 42.70703 | 9.14417 | 35118 ft | 489 kts | 123° |
| 2026-05-05 08:26 | 42.69061 | 9.18501 | 34232 ft | 494 kts | 123° |
| 2026-05-05 08:26 | 42.67410 | 9.22603 | 33383 ft | 496 kts | 123° |
| 2026-05-05 08:27 | 42.65759 | 9.26705 | 32641 ft | 495 kts | 123° |
| 2026-05-05 08:27 | 42.64105 | 9.30807 | 31842 ft | 495 kts | 123° |
| 2026-05-05 08:27 | 42.62468 | 9.34858 | 30980 ft | 497 kts | 123° |
| 2026-05-05 08:27 | 42.60802 | 9.38973 | 30138 ft | 499 kts | 123° |
| 2026-05-05 08:28 | 42.59216 | 9.43170 | 29352 ft | 500 kts | 116° |
| 2026-05-05 08:28 | 42.58204 | 9.47664 | 28856 ft | 497 kts | 103° |
| 2026-05-05 08:28 | 42.57871 | 9.52272 | 28531 ft | 489 kts | 91° |
| 2026-05-05 08:28 | 42.58200 | 9.56827 | 27968 ft | 485 kts | 78° |
| 2026-05-05 08:29 | 42.59093 | 9.61203 | 27414 ft | 480 kts | 72° |
| 2026-05-05 08:29 | 42.60121 | 9.65498 | 26857 ft | 475 kts | 72° |
| 2026-05-05 08:29 | 42.61059 | 9.69709 | 26304 ft | 471 kts | 74° |
| 2026-05-05 08:30 | 42.62654 | 9.78010 | 25333 ft | 460 kts | 77° |
| 2026-05-05 08:30 | 42.63392 | 9.82221 | 24777 ft | 457 kts | 77° |
| 2026-05-05 08:30 | 42.64110 | 9.86412 | 24166 ft | 455 kts | 78° |
| 2026-05-05 08:30 | 42.64823 | 9.90599 | 23538 ft | 454 kts | 78° |
| 2026-05-05 08:31 | 42.65532 | 9.94768 | 22909 ft | 451 kts | 78° |
| 2026-05-05 08:31 | 42.66231 | 9.98881 | 22421 ft | 444 kts | 78° |
| 2026-05-05 08:31 | 42.66911 | 10.02883 | 21875 ft | 439 kts | 78° |
| 2026-05-05 08:31 | 42.67594 | 10.06911 | 21341 ft | 434 kts | 78° |
| 2026-05-05 08:32 | 42.68267 | 10.10884 | 20816 ft | 430 kts | 78° |
| 2026-05-05 08:32 | 42.68932 | 10.14825 | 20280 ft | 426 kts | 78° |
| 2026-05-05 08:32 | 42.69591 | 10.18732 | 19760 ft | 422 kts | 78° |
| 2026-05-05 08:32 | 42.70242 | 10.22609 | 19236 ft | 419 kts | 78° |
| 2026-05-05 08:33 | 42.70888 | 10.26455 | 18690 ft | 416 kts | 78° |
| 2026-05-05 08:33 | 42.71537 | 10.30288 | 18139 ft | 414 kts | 76° |
| 2026-05-05 08:33 | 42.72642 | 10.33881 | 17578 ft | 411 kts | 58° |
| 2026-05-05 08:33 | 42.74438 | 10.36852 | 17048 ft | 405 kts | 40° |
| 2026-05-05 08:34 | 42.76724 | 10.38915 | 16536 ft | 397 kts | 21° |
| 2026-05-05 08:34 | 42.79333 | 10.39924 | 16060 ft | 385 kts | 2° |
| 2026-05-05 08:34 | 42.81942 | 10.39767 | 15607 ft | 369 kts | 345° |
| 2026-05-05 08:34 | 42.84418 | 10.38961 | 15121 ft | 365 kts | 341° |
| 2026-05-05 08:35 | 42.86875 | 10.38153 | 14650 ft | 363 kts | 343° |
| 2026-05-05 08:35 | 42.89354 | 10.37515 | 14165 ft | 362 kts | 347° |
| 2026-05-05 08:35 | 42.91795 | 10.37040 | 13689 ft | 361 kts | 349° |
| 2026-05-05 08:35 | 42.94293 | 10.36648 | 13189 ft | 358 kts | 350° |
| 2026-05-05 08:36 | 42.96760 | 10.36304 | 12715 ft | 354 kts | 350° |
| 2026-05-05 08:36 | 42.99205 | 10.35973 | 12253 ft | 353 kts | 351° |
| 2026-05-05 08:36 | 43.01650 | 10.35643 | 11780 ft | 352 kts | 351° |
| 2026-05-05 08:36 | 43.04083 | 10.35315 | 11327 ft | 351 kts | 351° |
| 2026-05-05 08:37 | 43.06486 | 10.34990 | 11215 ft | 346 kts | 350° |
| 2026-05-05 08:37 | 43.08846 | 10.34670 | 11112 ft | 335 kts | 350° |
| 2026-05-05 08:37 | 43.11125 | 10.34361 | 11010 ft | 322 kts | 350° |
| 2026-05-05 08:37 | 43.13271 | 10.34071 | 10986 ft | 306 kts | 350° |
| 2026-05-05 08:38 | 43.15360 | 10.33785 | 10985 ft | 303 kts | 349° |
| 2026-05-05 08:38 | 43.17473 | 10.33488 | 10984 ft | 306 kts | 349° |
| 2026-05-05 08:38 | 43.19584 | 10.33193 | 10952 ft | 304 kts | 349° |
| 2026-05-05 08:38 | 43.21686 | 10.32902 | 10680 ft | 302 kts | 350° |
| 2026-05-05 08:39 | 43.23773 | 10.32613 | 10316 ft | 301 kts | 350° |
| 2026-05-05 08:39 | 43.25850 | 10.32325 | 9959 ft | 299 kts | 349° |
| 2026-05-05 08:39 | 43.27817 | 10.31597 | 9543 ft | 288 kts | 328° |
| 2026-05-05 08:39 | 43.29341 | 10.30064 | 9365 ft | 265 kts | 310° |
| 2026-05-05 08:40 | 43.30622 | 10.28359 | 9199 ft | 248 kts | 311° |
| 2026-05-05 08:40 | 43.31849 | 10.26752 | 8822 ft | 242 kts | 311° |
| 2026-05-05 08:40 | 43.33061 | 10.25162 | 8343 ft | 240 kts | 311° |
| 2026-05-05 08:40 | 43.34261 | 10.23586 | 7989 ft | 234 kts | 310° |
| 2026-05-05 08:41 | 43.35360 | 10.22050 | 7851 ft | 218 kts | 302° |
| 2026-05-05 08:41 | 43.36239 | 10.20424 | 7690 ft | 208 kts | 300° |
| 2026-05-05 08:41 | 43.37098 | 10.18825 | 7407 ft | 208 kts | 301° |
| 2026-05-05 08:41 | 43.37945 | 10.17259 | 7082 ft | 206 kts | 301° |
| 2026-05-05 08:42 | 43.38800 | 10.15683 | 6688 ft | 205 kts | 301° |
| 2026-05-05 08:42 | 43.39654 | 10.14125 | 6276 ft | 204 kts | 304° |
| 2026-05-05 08:42 | 43.40830 | 10.13029 | 6043 ft | 218 kts | 342° |
| 2026-05-05 08:42 | 43.42380 | 10.13148 | 5876 ft | 231 kts | 17° |
| 2026-05-05 08:43 | 43.43802 | 10.14165 | 5617 ft | 231 kts | 32° |
| 2026-05-05 08:43 | 43.45103 | 10.15465 | 5274 ft | 231 kts | 36° |
| 2026-05-05 08:43 | 43.46384 | 10.16803 | 4919 ft | 230 kts | 34° |
| 2026-05-05 08:43 | 43.47663 | 10.18114 | 4529 ft | 229 kts | 34° |
| 2026-05-05 08:44 | 43.48914 | 10.19398 | 4140 ft | 227 kts | 34° |
| 2026-05-05 08:44 | 43.50148 | 10.20665 | 3992 ft | 211 kts | 34° |
| 2026-05-05 08:44 | 43.51282 | 10.21830 | 3851 ft | 195 kts | 34° |
| 2026-05-05 08:44 | 43.52341 | 10.22916 | 3656 ft | 186 kts | 34° |
| 2026-05-05 08:45 | 43.53375 | 10.23976 | 3432 ft | 184 kts | 34° |
| 2026-05-05 08:45 | 43.54400 | 10.25028 | 3195 ft | 183 kts | 34° |
| 2026-05-05 08:45 | 43.55411 | 10.26067 | 2953 ft | 180 kts | 34° |
| 2026-05-05 08:45 | 43.56409 | 10.27093 | 2718 ft | 177 kts | 34° |
| 2026-05-05 08:46 | 43.57377 | 10.28088 | 2493 ft | 175 kts | 35° |
| 2026-05-05 08:46 | 43.58344 | 10.29083 | 2259 ft | 173 kts | 35° |
| 2026-05-05 08:46 | 43.59307 | 10.30072 | 2035 ft | 173 kts | 36° |
| 2026-05-05 08:46 | 43.60264 | 10.31051 | 1802 ft | 170 kts | 36° |
| 2026-05-05 08:47 | 43.61205 | 10.32023 | 1576 ft | 167 kts | 37° |
| 2026-05-05 08:47 | 43.62119 | 10.32978 | 1366 ft | 165 kts | 36° |
| 2026-05-05 08:47 | 43.63041 | 10.33922 | 1130 ft | 164 kts | 37° |
| 2026-05-05 08:47 | 43.63930 | 10.34840 | 912 ft | 158 kts | 38° |
| 2026-05-05 08:48 | 43.64814 | 10.35747 | 686 ft | 157 kts | 39° |
| 2026-05-05 08:48 | 43.65627 | 10.36580 | 521 ft | 157 kts | 39° |
| 2026-05-05 08:48 | 43.66378 | 10.37346 | 299 ft | 151 kts | 40° |
| 2026-05-05 08:48 | 43.66638 | 10.37608 | 224 ft | 150 kts | 40° |
| 2026-05-05 08:49 | 43.67475 | 10.38645 | 67 ft | 189 kts | 45° |
| 2026-05-05 08:49 | 43.68582 | 10.39682 | 739 ft | 195 kts | 29° |
| 2026-05-05 08:49 | 43.69189 | 10.40042 | 1163 ft | 199 kts | 19° |
| 2026-05-05 08:50 | 43.70235 | 10.40395 | 1479 ft | 218 kts | 14° |
| 2026-05-05 08:50 | 43.71609 | 10.41401 | 1664 ft | 242 kts | 31° |
| 2026-05-05 08:50 | 43.73161 | 10.42529 | 1832 ft | 254 kts | 26° |
| 2026-05-05 08:50 | 43.74749 | 10.43228 | 1922 ft | 235 kts | 0° |
| 2026-05-05 08:51 | 43.76231 | 10.42802 | 2003 ft | 227 kts | 328° |
| 2026-05-05 08:51 | 43.77442 | 10.41395 | 1995 ft | 233 kts | 308° |
| 2026-05-05 08:51 | 43.78098 | 10.39661 | 1998 ft | 219 kts | 277° |
| 2026-05-05 08:51 | 43.77969 | 10.37598 | 2000 ft | 215 kts | 244° |
| 2026-05-05 08:52 | 43.77261 | 10.35774 | 2000 ft | 217 kts | 238° |
| 2026-05-05 08:52 | 43.76511 | 10.33989 | 1998 ft | 212 kts | 238° |
| 2026-05-05 08:52 | 43.75771 | 10.32231 | 1999 ft | 214 kts | 238° |
| 2026-05-05 08:52 | 43.75027 | 10.30464 | 2000 ft | 211 kts | 238° |
| 2026-05-05 08:53 | 43.74299 | 10.28710 | 2005 ft | 211 kts | 239° |
| 2026-05-05 08:53 | 43.73488 | 10.27021 | 1996 ft | 211 kts | 225° |
| 2026-05-05 08:53 | 43.72411 | 10.25675 | 2002 ft | 209 kts | 218° |
| 2026-05-05 08:53 | 43.71243 | 10.24429 | 2197 ft | 214 kts | 217° |
| 2026-05-05 08:54 | 43.70066 | 10.23198 | 2336 ft | 207 kts | 218° |
| 2026-05-05 08:54 | 43.68915 | 10.22017 | 2430 ft | 207 kts | 217° |
| 2026-05-05 08:54 | 43.67784 | 10.20849 | 2503 ft | 201 kts | 218° |
| 2026-05-05 08:54 | 43.66709 | 10.19744 | 2499 ft | 185 kts | 218° |
| 2026-05-05 08:55 | 43.65682 | 10.18714 | 2501 ft | 184 kts | 217° |
| 2026-05-05 08:55 | 43.64650 | 10.17666 | 2498 ft | 185 kts | 217° |
| 2026-05-05 08:55 | 43.64179 | 10.17187 | 2496 ft | 190 kts | 217° |
| 2026-05-05 08:55 | 43.62993 | 10.16057 | 2618 ft | 213 kts | 216° |
| 2026-05-05 08:56 | 43.61786 | 10.14934 | 3103 ft | 208 kts | 215° |
| 2026-05-05 08:56 | 43.60542 | 10.13785 | 3231 ft | 229 kts | 215° |
| 2026-05-05 08:56 | 43.59191 | 10.12559 | 3224 ft | 230 kts | 215° |
| 2026-05-05 08:56 | 43.57864 | 10.11371 | 2965 ft | 231 kts | 214° |
| 2026-05-05 08:57 | 43.56486 | 10.10197 | 2604 ft | 234 kts | 213° |
| 2026-05-05 08:57 | 43.55060 | 10.09073 | 2189 ft | 237 kts | 205° |
| 2026-05-05 08:57 | 43.53507 | 10.08814 | 2368 ft | 217 kts | 172° |
| 2026-05-05 08:57 | 43.52143 | 10.09779 | 2489 ft | 232 kts | 140° |
| 2026-05-05 08:58 | 43.51308 | 10.11682 | 2490 ft | 238 kts | 107° |
| 2026-05-05 08:58 | 43.51054 | 10.13946 | 2493 ft | 240 kts | 99° |
| 2026-05-05 08:58 | 43.50865 | 10.16161 | 2492 ft | 225 kts | 99° |
| 2026-05-05 08:58 | 43.50697 | 10.18210 | 2495 ft | 216 kts | 99° |
| 2026-05-05 08:59 | 43.50844 | 10.20239 | 2520 ft | 208 kts | 70° |
| 2026-05-05 08:59 | 43.51576 | 10.21842 | 2483 ft | 188 kts | 46° |
| 2026-05-05 08:59 | 43.52481 | 10.23011 | 2493 ft | 169 kts | 36° |
| 2026-05-05 08:59 | 43.53415 | 10.24013 | 2493 ft | 173 kts | 34° |
| 2026-05-05 09:00 | 43.54372 | 10.24996 | 2489 ft | 171 kts | 35° |
| 2026-05-05 09:00 | 43.55332 | 10.25985 | 2495 ft | 172 kts | 33° |
| 2026-05-05 09:00 | 43.56289 | 10.26968 | 2498 ft | 171 kts | 34° |
| 2026-05-05 09:00 | 43.57250 | 10.27957 | 2485 ft | 175 kts | 34° |
| 2026-05-05 09:01 | 43.58219 | 10.28954 | 2278 ft | 175 kts | 34° |
| 2026-05-05 09:01 | 43.59193 | 10.29956 | 2057 ft | 174 kts | 36° |
| 2026-05-05 09:01 | 43.60157 | 10.30949 | 1821 ft | 171 kts | 36° |
| 2026-05-05 09:01 | 43.61106 | 10.31926 | 1593 ft | 169 kts | 36° |
| 2026-05-05 09:02 | 43.62037 | 10.32885 | 1366 ft | 163 kts | 36° |
| 2026-05-05 09:02 | 43.62928 | 10.33803 | 1151 ft | 158 kts | 37° |
| 2026-05-05 09:02 | 43.63818 | 10.34719 | 939 ft | 161 kts | 37° |
| 2026-05-05 09:02 | 43.64715 | 10.35643 | 698 ft | 158 kts | 40° |
| 2026-05-05 09:03 | 43.65549 | 10.36504 | 495 ft | 145 kts | 40° |
| 2026-05-05 09:03 | 43.66369 | 10.37352 | 308 ft | 153 kts | 39° |
| 2026-05-05 09:03 | 43.67233 | 10.38247 | 131 ft | 151 kts | 39° |
| 2026-05-05 09:03 | 43.68049 | 10.39090 | 12 ft | 136 kts | 37° |
| 2026-05-05 09:04 | 43.68644 | 10.39700 | 13 ft | 77 kts | 36° |
| 2026-05-05 09:04 | 43.68986 | 10.40050 | 13 ft | 57 kts | 36° |
| 2026-05-05 09:04 | 43.69209 | 10.40279 | 14 ft | 6 kts | 36° |
| 2026-05-05 09:04 | 43.69254 | 10.40315 | 14 ft | 9 kts | 17° |
| 2026-05-05 09:05 | 43.69288 | 10.40303 | 14 ft | 2 kts | 308° |
| 2026-05-05 09:05 | 43.69299 | 10.40271 | 14 ft | 6 kts | 295° |
| 2026-05-05 09:05 | 43.69336 | 10.40189 | 15 ft | 13 kts | 306° |
| 2026-05-05 09:05 | 43.69410 | 10.40103 | 15 ft | 15 kts | 341° |
| 2026-05-05 09:06 | 43.69528 | 10.40077 | 14 ft | 19 kts | 352° |
| 2026-05-05 09:06 | 43.69637 | 10.40018 | 14 ft | 17 kts | 319° |
| 2026-05-05 09:06 | 43.69699 | 10.39960 | 14 ft | 9 kts | 352° |
| 2026-05-05 09:06 | 43.69753 | 10.39968 | 14 ft | 3 kts | 7° |
| 2026-05-05 09:07 | 43.69766 | 10.39970 | 14 ft | 2 kts | 7° |